createdAt,value
2022-08-05T00:02:11.544Z,26.10
2022-08-05T00:04:40.265Z,26.10
2022-08-05T00:07:32.108Z,26.08
2022-08-05T00:09:54.913Z,26.06
2022-08-05T00:12:22.083Z,26.04
2022-08-05T00:14:51.715Z,26.04
2022-08-05T00:17:19.434Z,26.03
2022-08-05T00:20:02.187Z,26.01
2022-08-05T00:22:30.921Z,25.99
2022-08-05T00:24:58.172Z,25.98
2022-08-05T00:27:28.655Z,25.98
2022-08-05T00:30:04.998Z,25.97
2022-08-05T00:32:38.833Z,25.96
2022-08-05T00:35:08.304Z,25.94
2022-08-05T00:37:52.408Z,25.93
2022-08-05T00:40:27.252Z,25.98
2022-08-05T00:42:55.104Z,26.04
2022-08-05T00:45:24.968Z,26.08
2022-08-05T00:48:06.200Z,26.11
2022-08-05T00:50:34.349Z,26.13
2022-08-05T00:53:02.945Z,26.14
2022-08-05T00:55:42.531Z,26.15
2022-08-05T00:58:17.040Z,26.16
2022-08-05T01:00:46.819Z,26.15
2022-08-05T01:03:22.298Z,26.10
2022-08-05T01:05:51.626Z,26.07
2022-08-05T01:08:40.662Z,26.02
2022-08-05T01:11:33.339Z,25.94
2022-08-05T01:14:28.297Z,25.80
2022-08-05T01:17:04.673Z,25.69
2022-08-05T01:20:02.369Z,25.70
2022-08-05T01:22:35.776Z,25.78
2022-08-05T01:25:40.935Z,25.79
2022-08-05T01:28:33.016Z,25.71
2022-08-05T01:31:22.622Z,25.67
2022-08-05T01:33:53.833Z,25.68
2022-08-05T01:36:28.414Z,25.67
2022-08-05T01:38:56.381Z,25.68
2022-08-05T01:41:28.197Z,25.70
2022-08-05T01:43:55.962Z,25.71
2022-08-05T01:46:42.099Z,25.73
2022-08-05T01:49:23.987Z,25.73
2022-08-05T01:51:59.386Z,25.74
2022-08-05T01:54:33.616Z,25.81
2022-08-05T01:58:10.130Z,25.88
2022-08-05T01:59:48.714Z,25.94
2022-08-05T02:02:16.175Z,25.95
2022-08-05T02:04:46.149Z,25.96
2022-08-05T02:07:22.008Z,25.96
2022-08-05T02:09:51.171Z,25.96
2022-08-05T02:12:38.919Z,25.94
2022-08-05T02:15:21.321Z,25.88
2022-08-05T02:18:32.993Z,25.82
2022-08-05T02:20:44.693Z,25.79
2022-08-05T02:23:14.132Z,25.77
2022-08-05T02:25:50.031Z,25.74
2022-08-05T02:28:29.237Z,25.69
2022-08-05T02:31:00.618Z,25.74
2022-08-05T02:33:38.617Z,25.77
2022-08-05T02:36:13.515Z,25.78
2022-08-05T02:38:45.176Z,25.77
2022-08-05T02:41:22.977Z,25.78
2022-08-05T02:44:02.443Z,25.77
2022-08-05T02:46:36.243Z,25.70
2022-08-05T02:49:21.926Z,25.51
2022-08-05T02:52:04.431Z,25.38
2022-08-05T02:54:36.127Z,25.35
2022-08-05T02:57:10.230Z,25.36
2022-08-05T02:59:55.834Z,25.42
2022-08-05T03:02:27.583Z,25.51
2022-08-05T03:04:55.666Z,25.59
2022-08-05T03:07:59.435Z,25.63
2022-08-05T03:10:10.461Z,25.65
2022-08-05T03:12:41.246Z,25.64
2022-08-05T03:15:10.064Z,25.54
2022-08-05T03:17:41.484Z,25.45
2022-08-05T03:20:10.426Z,25.43
2022-08-05T03:22:37.997Z,25.45
2022-08-05T03:26:02.630Z,25.47
2022-08-05T03:28:00.507Z,25.52
2022-08-05T03:30:33.437Z,25.54
2022-08-05T03:33:05.728Z,25.56
2022-08-05T03:35:33.684Z,25.63
2022-08-05T03:38:02.924Z,25.71
2022-08-05T03:40:32.059Z,25.73
2022-08-05T03:43:01.398Z,25.75
2022-08-05T03:45:57.234Z,25.75
2022-08-05T03:48:21.980Z,25.68
2022-08-05T03:52:35.211Z,25.67
2022-08-05T03:55:34.753Z,25.71
2022-08-05T03:56:42.547Z,25.72
2022-08-05T03:59:11.108Z,25.74
2022-08-05T04:01:40.892Z,25.78
2022-08-05T04:04:10.565Z,25.81
2022-08-05T04:06:38.182Z,25.80
2022-08-05T04:09:15.336Z,25.75
2022-08-05T04:11:52.484Z,25.69
2022-08-05T04:14:29.993Z,25.60
2022-08-05T04:17:00.088Z,25.64
2022-08-05T04:19:30.328Z,25.62
2022-08-05T04:22:10.039Z,25.47
2022-08-05T04:24:44.287Z,25.39
2022-08-05T04:27:15.420Z,25.36
2022-08-05T04:29:42.898Z,25.36
2022-08-05T04:32:10.044Z,25.44
2022-08-05T04:34:43.035Z,25.55
2022-08-05T04:37:10.585Z,25.67
2022-08-05T04:39:39.161Z,25.78
2022-08-05T04:42:07.898Z,25.88
2022-08-05T04:44:36.340Z,25.94
2022-08-05T04:47:09.293Z,25.95
2022-08-05T04:50:01.308Z,25.98
2022-08-05T04:52:27.653Z,26.05
2022-08-05T04:54:56.946Z,26.12
2022-08-05T04:57:28.975Z,26.22
2022-08-05T04:59:58.573Z,26.29
2022-08-05T05:02:41.172Z,26.30
2022-08-05T05:05:26.376Z,26.35
2022-08-05T05:08:03.746Z,26.39
2022-08-05T05:10:33.246Z,26.27
2022-08-05T05:13:03.786Z,26.17
2022-08-05T05:15:56.688Z,26.10
2022-08-05T05:18:31.527Z,26.03
2022-08-05T05:21:02.383Z,25.92
2022-08-05T05:23:39.339Z,25.79
2022-08-05T05:26:18.245Z,25.74
2022-08-05T05:28:45.723Z,25.73
2022-08-05T05:31:13.120Z,25.73
2022-08-05T05:33:58.734Z,25.75
2022-08-05T05:36:28.652Z,25.78
2022-08-05T05:38:57.546Z,25.90
2022-08-05T05:41:40.832Z,26.08
2022-08-05T05:44:26.979Z,26.29
2022-08-05T05:46:56.385Z,26.50
2022-08-05T05:49:26.577Z,26.60
2022-08-05T05:51:54.636Z,26.73
2022-08-05T05:54:22.165Z,26.88
2022-08-05T05:57:13.406Z,27.05
2022-08-05T05:59:42.611Z,27.20
2022-08-05T06:02:10.702Z,27.31
2022-08-05T06:04:38.206Z,27.44
2022-08-05T06:07:05.619Z,27.55
2022-08-05T06:09:50.173Z,27.62
2022-08-05T06:12:42.143Z,27.72
2022-08-05T06:15:23.600Z,27.75
2022-08-05T06:17:53.489Z,27.61
2022-08-05T06:20:21.961Z,27.42
2022-08-05T06:22:50.389Z,27.24
2022-08-05T06:25:59.192Z,27.16
2022-08-05T06:28:10.757Z,27.15
2022-08-05T06:30:48.519Z,27.10
2022-08-05T06:33:19.305Z,26.98
2022-08-05T06:36:05.646Z,26.88
2022-08-05T06:38:37.271Z,26.86
2022-08-05T06:41:07.944Z,26.91
2022-08-05T06:43:58.489Z,26.96
2022-08-05T06:46:29.925Z,27.01
2022-08-05T06:49:00.894Z,27.03
2022-08-05T06:51:31.030Z,27.06
2022-08-05T06:53:59.663Z,27.08
2022-08-05T06:56:28.175Z,27.11
2022-08-05T06:58:55.788Z,27.09
2022-08-05T07:01:23.839Z,27.05
2022-08-05T07:03:59.996Z,27.08
2022-08-05T07:06:28.611Z,27.05
2022-08-05T07:08:56.265Z,27.05
2022-08-05T07:11:29.048Z,27.08
2022-08-05T07:14:20.379Z,27.08
2022-08-05T07:17:58.471Z,27.12
2022-08-05T07:22:29.784Z,27.15
2022-08-05T07:24:59.432Z,27.15
2022-08-05T07:27:27.566Z,27.15
2022-08-05T07:30:25.408Z,27.12
2022-08-05T07:32:55.632Z,27.09
2022-08-05T07:36:02.373Z,27.06
2022-08-05T07:38:32.250Z,27.04
2022-08-05T07:41:04.459Z,27.04
2022-08-05T07:43:48.014Z,27.03
2022-08-05T07:46:24.736Z,26.99
2022-08-05T07:49:01.711Z,26.95
2022-08-05T07:51:41.008Z,26.94
2022-08-05T07:54:26.487Z,26.98
2022-08-05T07:57:14.043Z,27.02
2022-08-05T07:59:42.209Z,27.05
2022-08-05T08:02:16.253Z,27.06
2022-08-05T08:04:46.732Z,27.08
2022-08-05T08:07:15.093Z,27.08
2022-08-05T08:09:43.904Z,27.12
2022-08-05T08:12:35.673Z,27.15
2022-08-05T08:15:02.402Z,27.12
2022-08-05T08:17:32.185Z,27.13
2022-08-05T08:20:22.391Z,27.20
2022-08-05T08:22:57.917Z,27.28
2022-08-05T08:25:27.059Z,27.31
2022-08-05T08:28:18.484Z,27.31
2022-08-05T08:31:01.060Z,27.35
2022-08-05T08:33:28.311Z,27.45
2022-08-05T08:36:29.647Z,27.52
2022-08-05T08:38:42.985Z,27.53
2022-08-05T08:41:20.574Z,27.55
2022-08-05T08:45:22.975Z,27.57
2022-08-05T08:46:41.605Z,27.66
2022-08-05T08:50:13.230Z,27.80
2022-08-05T08:52:05.977Z,27.97
2022-08-05T08:54:42.270Z,28.02
2022-08-05T08:57:11.195Z,28.00
2022-08-05T08:59:39.228Z,27.99
2022-08-05T09:02:09.466Z,28.02
2022-08-05T09:04:58.291Z,28.01
2022-08-05T09:07:28.515Z,27.98
2022-08-05T09:09:56.892Z,27.94
2022-08-05T09:12:27.730Z,27.95
2022-08-05T09:14:58.583Z,28.00
2022-08-05T09:17:42.673Z,27.99
2022-08-05T09:20:21.029Z,27.95
2022-08-05T09:23:18.646Z,27.96
2022-08-05T09:26:01.668Z,27.98
2022-08-05T09:28:33.431Z,27.98
2022-08-05T09:31:22.093Z,27.96
2022-08-05T09:34:01.531Z,27.82
2022-08-05T09:36:45.802Z,27.64
2022-08-05T09:39:41.880Z,27.53
2022-08-05T09:42:13.597Z,27.49
2022-08-05T09:44:51.357Z,27.46
2022-08-05T09:47:23.713Z,27.42
2022-08-05T09:50:02.073Z,27.40
2022-08-05T09:52:31.529Z,27.33
2022-08-05T09:55:06.299Z,27.24
2022-08-05T09:57:49.684Z,27.28
2022-08-05T10:00:26.606Z,27.31
2022-08-05T10:02:55.022Z,27.34
2022-08-05T10:05:28.106Z,27.30
2022-08-05T10:08:36.744Z,27.24
2022-08-05T10:10:54.601Z,27.22
2022-08-05T10:13:47.835Z,27.22
2022-08-05T10:16:41.981Z,27.22
2022-08-05T10:19:23.427Z,27.20
2022-08-05T10:21:59.584Z,27.22
2022-08-05T10:24:27.235Z,27.27
2022-08-05T10:27:00.581Z,27.34
2022-08-05T10:30:42.002Z,27.41
2022-08-05T10:32:54.431Z,27.49
2022-08-05T10:35:05.085Z,27.60
2022-08-05T10:37:41.313Z,27.68
2022-08-05T10:40:44.894Z,27.70
2022-08-05T10:43:37.537Z,27.64
2022-08-05T10:46:08.011Z,27.49
2022-08-05T10:48:56.813Z,27.31
2022-08-05T10:51:29.035Z,27.09
2022-08-05T10:54:01.058Z,26.95
2022-08-05T10:56:44.346Z,26.84
2022-08-05T11:00:02.988Z,26.82
2022-08-05T11:02:14.006Z,26.79
2022-08-05T11:04:46.277Z,26.84
2022-08-05T11:07:19.424Z,26.94
2022-08-05T11:10:09.481Z,27.06
2022-08-05T11:12:41.104Z,27.09
2022-08-05T11:15:20.643Z,26.97
2022-08-05T11:17:59.717Z,26.84
2022-08-05T11:20:34.617Z,26.74
2022-08-05T11:23:33.312Z,26.71
2022-08-05T11:26:11.321Z,26.63
2022-08-05T11:28:44.496Z,26.53
2022-08-05T11:31:11.764Z,26.42
2022-08-05T11:33:48.020Z,26.35
2022-08-05T11:36:34.328Z,26.37
2022-08-05T11:39:09.680Z,26.46
2022-08-05T11:42:00.669Z,26.54
2022-08-05T11:44:53.220Z,26.67
2022-08-05T11:47:19.953Z,26.88
2022-08-05T11:49:56.546Z,27.11
2022-08-05T11:52:29.702Z,27.27
2022-08-05T11:55:07.153Z,27.40
2022-08-05T11:58:08.205Z,27.47
2022-08-05T12:00:27.628Z,27.48
2022-08-05T12:02:56.569Z,27.49
2022-08-05T12:05:32.263Z,27.50
2022-08-05T12:08:11.260Z,27.53
2022-08-05T12:10:45.019Z,27.61
2022-08-05T12:14:43.269Z,27.72
2022-08-05T12:18:10.140Z,27.74
2022-08-05T12:20:25.538Z,27.80
2022-08-05T12:22:51.766Z,27.89
2022-08-05T12:25:19.104Z,27.97
2022-08-05T12:27:53.199Z,27.99
2022-08-05T12:30:22.818Z,28.02
2022-08-05T12:33:07.355Z,28.08
2022-08-05T12:35:46.754Z,28.18
2022-08-05T12:38:15.310Z,28.26
2022-08-05T12:40:44.155Z,28.33
2022-08-05T12:43:11.929Z,28.35
2022-08-05T12:45:52.505Z,28.34
2022-08-05T12:48:32.473Z,28.33
2022-08-05T12:52:09.971Z,28.34
2022-08-05T12:54:14.699Z,28.37
2022-08-05T12:56:47.993Z,28.38
2022-08-05T12:59:27.358Z,28.46
2022-08-05T13:02:07.458Z,28.57
2022-08-05T13:04:41.842Z,28.68
2022-08-05T13:07:56.007Z,28.80
2022-08-05T13:10:13.065Z,28.90
2022-08-05T13:12:42.585Z,28.99
2022-08-05T13:15:24.383Z,29.13
2022-08-05T13:18:05.136Z,29.28
2022-08-05T13:20:35.604Z,29.40
2022-08-05T13:23:08.045Z,29.53
2022-08-05T13:25:51.629Z,29.63
2022-08-05T13:28:25.542Z,29.70
2022-08-05T13:30:53.457Z,29.65
2022-08-05T13:34:25.160Z,29.56
2022-08-05T13:36:11.373Z,29.44
2022-08-05T13:38:43.073Z,29.35
2022-08-05T13:41:11.797Z,29.20
2022-08-05T13:43:45.197Z,29.11
2022-08-05T13:46:43.652Z,29.03
2022-08-05T13:49:13.241Z,28.96
2022-08-05T13:51:46.513Z,28.92
2022-08-05T13:54:16.239Z,28.87
2022-08-05T13:56:50.365Z,28.83
2022-08-05T13:59:24.106Z,28.81
2022-08-05T14:01:57.911Z,28.80
2022-08-05T14:04:49.888Z,28.79
2022-08-05T14:07:26.538Z,28.79
2022-08-05T14:10:10.620Z,28.81
2022-08-05T14:12:39.291Z,28.77
2022-08-05T14:16:08.019Z,28.73
2022-08-05T14:17:59.462Z,28.73
2022-08-05T14:20:28.516Z,28.78
2022-08-05T14:22:56.074Z,28.82
2022-08-05T14:25:28.160Z,28.87
2022-08-05T14:27:56.418Z,28.92
2022-08-05T14:30:28.081Z,28.96
2022-08-05T14:32:56.746Z,29.01
2022-08-05T14:35:36.325Z,29.07
2022-08-05T14:38:04.957Z,29.15
2022-08-05T14:40:32.487Z,29.22
2022-08-05T14:43:01.546Z,29.24
2022-08-05T14:45:28.867Z,29.22
2022-08-05T14:48:05.379Z,29.19
2022-08-05T14:50:39.712Z,29.20
2022-08-05T14:53:07.890Z,29.25
2022-08-05T14:55:39.556Z,29.30
2022-08-05T14:58:11.296Z,29.34
2022-08-05T15:00:59.432Z,29.39
2022-08-05T15:03:33.117Z,29.41
2022-08-05T15:06:13.115Z,29.36
2022-08-05T15:08:57.983Z,29.29
2022-08-05T15:11:50.994Z,29.25
2022-08-05T15:14:34.222Z,29.21
2022-08-05T15:17:45.580Z,29.19
2022-08-05T15:20:17.082Z,29.22
2022-08-05T15:22:54.073Z,29.19
2022-08-05T15:25:51.078Z,29.09
2022-08-05T15:28:14.395Z,29.02
2022-08-05T15:30:43.790Z,28.99
2022-08-05T15:33:56.874Z,28.98
2022-08-05T15:36:06.007Z,28.93
2022-08-05T15:38:44.845Z,28.90
2022-08-05T15:41:21.949Z,28.89
2022-08-05T15:43:54.508Z,28.88
2022-08-05T15:46:25.028Z,28.85
2022-08-05T15:49:00.643Z,28.81
2022-08-05T15:52:03.746Z,28.75
2022-08-05T15:54:18.166Z,28.68
2022-08-05T15:56:45.465Z,28.63
2022-08-05T15:59:19.897Z,28.56
2022-08-05T16:01:52.508Z,28.48
2022-08-05T16:04:25.463Z,28.41
2022-08-05T16:06:55.762Z,28.35
2022-08-05T16:09:24.374Z,28.30
2022-08-05T16:11:54.039Z,28.26
2022-08-05T16:14:22.661Z,28.21
2022-08-05T16:16:50.183Z,28.18
2022-08-05T16:19:19.185Z,28.14
2022-08-05T16:22:05.502Z,28.12
2022-08-05T16:24:39.536Z,28.14
2022-08-05T16:27:09.246Z,28.15
2022-08-05T16:29:37.619Z,28.12
2022-08-05T16:32:09.687Z,28.05
2022-08-05T16:34:39.254Z,27.97
2022-08-05T16:38:00.433Z,27.90
2022-08-05T16:40:06.424Z,27.82
2022-08-05T16:42:36.020Z,27.75
2022-08-05T16:46:04.034Z,27.73
2022-08-05T16:47:58.492Z,27.72
2022-08-05T16:50:29.898Z,27.67
2022-08-05T16:53:01.667Z,27.61
2022-08-05T16:55:46.788Z,27.54
2022-08-05T16:58:14.795Z,27.50
2022-08-05T17:00:48.095Z,27.47
2022-08-05T17:03:20.063Z,27.43
2022-08-05T17:05:54.034Z,27.39
2022-08-05T17:08:33.364Z,27.32
2022-08-05T17:11:04.234Z,27.27
2022-08-05T17:13:37.884Z,27.26
2022-08-05T17:16:30.258Z,27.28
2022-08-05T17:18:56.596Z,27.32
2022-08-05T17:21:24.089Z,27.44
2022-08-05T17:24:04.899Z,27.56
2022-08-05T17:26:36.938Z,27.60
2022-08-05T17:29:09.783Z,27.56
2022-08-05T17:31:41.410Z,27.56
2022-08-05T17:34:30.017Z,27.57
2022-08-05T17:37:00.610Z,27.58
2022-08-05T17:39:33.593Z,27.63
2022-08-05T17:42:28.495Z,27.65
2022-08-05T17:44:51.101Z,27.67
2022-08-05T17:47:22.170Z,27.65
2022-08-05T17:49:52.007Z,27.55
2022-08-05T17:52:32.800Z,27.44
2022-08-05T17:55:00.731Z,27.43
2022-08-05T17:57:30.538Z,27.50
2022-08-05T18:00:03.458Z,27.58
2022-08-05T18:02:34.213Z,27.58
2022-08-05T18:05:06.924Z,27.53
2022-08-05T18:07:41.414Z,27.46
2022-08-05T18:10:13.989Z,27.40
2022-08-05T18:12:48.622Z,27.34
2022-08-05T18:15:16.440Z,27.28
2022-08-05T18:18:00.393Z,27.23
2022-08-05T18:20:32.627Z,27.20
2022-08-05T18:23:12.014Z,27.16
2022-08-05T18:25:45.262Z,27.12
2022-08-05T18:28:17.770Z,27.07
2022-08-05T18:30:51.031Z,27.02
2022-08-05T18:33:22.658Z,26.98
2022-08-05T18:36:03.556Z,27.02
2022-08-05T18:38:36.395Z,27.07
2022-08-05T18:41:54.290Z,27.04
2022-08-05T18:43:52.082Z,26.96
2022-08-05T18:46:19.812Z,26.89
2022-08-05T18:48:53.845Z,26.85
2022-08-05T18:52:06.597Z,26.83
2022-08-05T18:54:30.962Z,26.79
2022-08-05T18:57:00.929Z,26.77
2022-08-05T18:59:43.995Z,26.77
2022-08-05T19:02:26.728Z,26.80
2022-08-05T19:05:02.073Z,26.78
2022-08-05T19:07:45.388Z,26.75
2022-08-05T19:10:15.271Z,26.73
2022-08-05T19:12:43.258Z,26.71
2022-08-05T19:15:57.648Z,26.68
2022-08-05T19:18:09.739Z,26.63
2022-08-05T19:20:41.764Z,26.65
2022-08-05T19:24:05.771Z,26.68
2022-08-05T19:26:02.937Z,26.69
2022-08-05T19:28:34.852Z,26.65
2022-08-05T19:31:06.079Z,26.62
2022-08-05T19:33:36.815Z,26.60
2022-08-05T19:36:09.020Z,26.58
2022-08-05T19:38:36.746Z,26.57
2022-08-05T19:41:07.303Z,26.56
2022-08-05T19:44:05.862Z,26.56
2022-08-05T19:46:29.567Z,26.64
2022-08-05T19:49:01.227Z,26.75
2022-08-05T19:52:04.525Z,26.82
2022-08-05T19:54:26.777Z,26.85
2022-08-05T19:56:59.761Z,26.86
2022-08-05T20:00:00.511Z,26.87
2022-08-05T20:02:17.696Z,26.88
2022-08-05T20:04:48.234Z,26.83
2022-08-05T20:07:15.906Z,26.78
2022-08-05T20:10:11.642Z,26.75
2022-08-05T20:12:48.357Z,26.74
2022-08-05T20:15:48.735Z,26.77
2022-08-05T20:18:10.873Z,26.87
2022-08-05T20:20:55.818Z,26.99
2022-08-05T20:23:44.481Z,27.05
2022-08-05T20:26:16.462Z,27.07
2022-08-05T20:28:49.886Z,27.09
2022-08-05T20:31:21.534Z,27.10
2022-08-05T20:33:51.338Z,27.10
2022-08-05T20:36:18.971Z,27.09
2022-08-05T20:38:53.686Z,27.07
2022-08-05T20:41:27.436Z,27.05
2022-08-05T20:44:17.184Z,27.02
2022-08-05T20:46:48.086Z,27.00
2022-08-05T20:49:15.337Z,26.97
2022-08-05T20:51:53.441Z,26.97
2022-08-05T20:54:22.326Z,26.95
2022-08-05T20:56:49.757Z,26.91
2022-08-05T20:59:26.645Z,26.87
2022-08-05T21:01:56.549Z,26.83
2022-08-05T21:04:27.008Z,26.86
2022-08-05T21:06:55.797Z,26.90
2022-08-05T21:09:23.175Z,26.90
2022-08-05T21:12:09.788Z,26.91
2022-08-05T21:14:39.205Z,26.92
2022-08-05T21:17:06.762Z,26.94
2022-08-05T21:19:47.042Z,26.97
2022-08-05T21:22:21.746Z,26.99
2022-08-05T21:24:51.590Z,26.98
2022-08-05T21:27:25.347Z,26.96
2022-08-05T21:29:56.242Z,26.92
2022-08-05T21:32:27.765Z,26.81
2022-08-05T21:35:17.525Z,26.72
2022-08-05T21:37:52.781Z,26.68
2022-08-05T21:40:23.114Z,26.67
2022-08-05T21:42:51.980Z,26.66
2022-08-05T21:45:26.574Z,26.64
2022-08-05T21:48:08.502Z,26.72
2022-08-05T21:50:37.268Z,26.79
2022-08-05T21:53:16.347Z,26.81
2022-08-05T21:56:05.667Z,26.83
2022-08-05T21:58:32.854Z,26.85
2022-08-05T22:01:00.167Z,26.86
2022-08-05T22:03:48.727Z,26.87
2022-08-05T22:06:22.582Z,26.87
2022-08-05T22:08:52.415Z,26.86
2022-08-05T22:11:34.389Z,26.85
2022-08-05T22:14:06.460Z,26.82
2022-08-05T22:16:53.162Z,26.80
2022-08-05T22:20:01.749Z,26.79
2022-08-05T22:22:12.444Z,26.78
2022-08-05T22:25:01.485Z,26.76
2022-08-05T22:28:11.025Z,26.74
2022-08-05T22:30:32.195Z,26.80
2022-08-05T22:33:02.553Z,26.83
2022-08-05T22:35:48.161Z,26.83
2022-08-05T22:38:19.677Z,26.84
2022-08-05T22:40:50.087Z,26.81
2022-08-05T22:43:36.944Z,26.77
2022-08-05T22:46:13.390Z,26.76
2022-08-05T22:48:42.219Z,26.75
2022-08-05T22:51:16.004Z,26.74
2022-08-05T22:53:51.830Z,26.75
2022-08-05T22:56:30.463Z,26.75
2022-08-05T22:59:02.952Z,26.75
2022-08-05T23:01:50.778Z,26.74
2022-08-05T23:04:19.308Z,26.73
2022-08-05T23:06:47.758Z,26.70
2022-08-05T23:09:27.980Z,26.66
2022-08-05T23:12:02.600Z,26.62
2022-08-05T23:14:32.110Z,26.62
2022-08-05T23:17:24.221Z,26.60
2022-08-05T23:20:00.681Z,26.55
2022-08-05T23:22:30.958Z,26.52
2022-08-05T23:24:59.163Z,26.51
2022-08-05T23:27:28.882Z,26.51
2022-08-05T23:30:01.024Z,26.47
2022-08-05T23:32:28.819Z,26.42
2022-08-05T23:34:56.757Z,26.40
2022-08-05T23:37:23.945Z,26.36
2022-08-05T23:39:54.920Z,26.34
2022-08-05T23:42:23.399Z,26.35
2022-08-05T23:44:57.296Z,26.37
2022-08-05T23:47:25.210Z,26.36
2022-08-05T23:49:55.648Z,26.21
2022-08-05T23:52:27.828Z,26.09
2022-08-05T23:54:57.150Z,25.97
2022-08-05T23:57:28.341Z,25.89
